Time;durP1;ratioP1;P1;durP2;ratioP2;P2;SDS_P1;SDS_P2;PMS_P1;PMS_P2;Temp;Humidity;BMP_temperature;BMP_pressure;BME280_temperature;BME280_humidity;BME280_pressure;Samples;Min_cycle;Max_cycle;Signal;HPM_P1;HPM_P2
2021/10/15 00:01:58;;;;;;;;;59.00;43.75;;;;;12.56;67.15;101685.72;4999906;28;45409;-67
2021/10/15 00:04:24;;;;;;;;;54.00;41.00;;;;;12.54;67.16;101682.28;4991553;28;45297;-67
2021/10/15 00:06:49;;;;;;;;;37.50;31.00;;;;;12.52;67.38;101684.91;5000810;28;45369;-67
2021/10/15 00:09:14;;;;;;;;;52.50;43.00;;;;;12.47;67.23;101687.63;4999733;28;45226;-67
2021/10/15 00:11:40;;;;;;;;;56.25;44.50;;;;;12.42;67.33;101673.81;5000471;28;45504;-67
2021/10/15 00:14:05;;;;;;;;;56.50;44.00;;;;;12.35;67.22;101685.25;5001036;28;45314;-66
2021/10/15 00:16:30;;;;;;;;;53.00;44.75;;;;;12.29;67.85;101682.78;5002543;28;45343;-65
2021/10/15 00:18:56;;;;;;;;;57.00;45.25;;;;;12.25;67.26;101690.69;4980484;28;45446;-65
2021/10/15 00:21:21;;;;;;;;;52.00;43.00;;;;;12.16;67.68;101679.53;4999021;28;45540;-64
2021/10/15 00:23:47;;;;;;;;;54.50;41.75;;;;;12.17;67.87;101677.78;4995418;28;45955;-65
2021/10/15 00:26:12;;;;;;;;;53.00;41.25;;;;;12.14;68.22;101685.66;4998651;28;45430;-65
2021/10/15 00:28:38;;;;;;;;;57.25;45.00;;;;;12.12;68.47;101677.88;4998826;28;45608;-65
2021/10/15 00:31:04;;;;;;;;;53.25;42.75;;;;;12.11;68.64;101678.75;4999264;28;45438;-65
2021/10/15 00:33:29;;;;;;;;;54.00;41.25;;;;;12.02;68.18;101671.13;4999153;28;47258;-65
2021/10/15 00:35:54;;;;;;;;;52.50;41.00;;;;;12.04;68.70;101673.72;5001114;28;45219;-65
2021/10/15 00:38:20;;;;;;;;;48.00;40.50;;;;;12.01;68.47;101666.78;5001313;28;45448;-65
2021/10/15 00:40:45;;;;;;;;;51.50;41.75;;;;;12.01;68.59;101674.59;5001047;28;45309;-65
2021/10/15 00:43:11;;;;;;;;;53.25;41.00;;;;;11.99;69.14;101668.56;5000539;28;46280;-65
2021/10/15 00:45:36;;;;;;;;;47.75;37.75;;;;;11.98;69.28;101671.19;5000998;28;45441;-65
2021/10/15 00:48:02;;;;;;;;;52.25;39.75;;;;;11.98;69.15;101671.19;5000856;28;45449;-65
2021/10/15 00:50:27;;;;;;;;;51.00;40.00;;;;;11.95;69.39;101666.03;5001119;28;45221;-65
2021/10/15 00:52:53;;;;;;;;;54.00;40.00;;;;;11.93;69.44;101675.63;5000634;28;45943;-65
2021/10/15 00:55:18;;;;;;;;;45.00;37.00;;;;;11.90;69.56;101673.09;5000621;28;45256;-64
2021/10/15 00:57:43;;;;;;;;;51.75;42.75;;;;;11.87;69.65;101669.66;5000791;28;45306;-65
2021/10/15 01:00:09;;;;;;;;;52.50;41.00;;;;;11.86;69.86;101670.53;5000776;28;45309;-63
2021/10/15 01:02:35;;;;;;;;;54.25;39.25;;;;;11.85;69.95;101666.22;5000522;28;46139;-63
2021/10/15 01:05:01;;;;;;;;;47.00;41.00;;;;;11.83;69.89;101659.34;5000885;28;45382;-64
2021/10/15 01:07:28;;;;;;;;;52.50;41.00;;;;;11.83;70.32;101665.41;5000910;28;45466;-67
2021/10/15 01:09:54;;;;;;;;;52.50;42.00;;;;;11.80;70.38;101657.59;5000507;28;45331;-67
2021/10/15 01:12:20;;;;;;;;;47.25;38.75;;;;;11.78;69.84;101656.78;4997945;28;45941;-67
2021/10/15 01:14:46;;;;;;;;;47.50;35.25;;;;;11.78;69.54;101656.78;5000097;28;45236;-68
2021/10/15 01:17:11;;;;;;;;;49.00;39.75;;;;;11.75;69.80;101661.16;4998540;28;45731;-68
2021/10/15 01:19:37;;;;;;;;;45.75;37.25;;;;;11.71;70.29;101647.34;4995456;28;45633;-68
2021/10/15 01:22:08;;;;;;;;;50.25;37.25;;;;;11.70;69.82;101644.75;5000515;28;45355;-67
2021/10/15 01:24:34;;;;;;;;;40.00;34.75;;;;;11.68;70.19;101655.22;4996927;28;45828;-63
2021/10/15 01:27:08;;;;;;;;;46.75;37.00;;;;;11.67;70.08;101644.81;5000640;28;45225;-63
2021/10/15 01:29:36;;;;;;;;;46.25;38.50;;;;;11.66;70.32;101649.16;4999951;28;45441;-64
2021/10/15 01:32:02;;;;;;;;;40.00;37.25;;;;;11.66;70.26;101643.09;5000215;28;46448;-64
2021/10/15 01:34:27;;;;;;;;;48.00;38.25;;;;;11.66;70.22;101640.50;5000263;28;45270;-64
2021/10/15 01:36:53;;;;;;;;;48.00;37.00;;;;;11.62;70.41;101637.09;4990421;28;45423;-63
2021/10/15 01:39:18;;;;;;;;;44.75;37.50;;;;;11.62;70.53;101641.44;5000152;28;45484;-64
2021/10/15 01:41:43;;;;;;;;;42.25;36.75;;;;;11.59;70.17;101640.59;5000103;28;45388;-65
2021/10/15 01:44:09;;;;;;;;;40.25;32.75;;;;;11.54;70.01;101637.22;4999171;28;45280;-68
2021/10/15 01:46:35;;;;;;;;;44.25;35.00;;;;;11.49;70.46;101641.66;4999171;28;45289;-68
2021/10/15 01:49:01;;;;;;;;;43.00;35.25;;;;;11.46;71.08;101635.63;4998022;28;45614;-64
2021/10/15 01:51:26;;;;;;;;;41.00;36.50;;;;;11.45;71.00;101631.31;5000380;28;46357;-67
2021/10/15 01:53:51;;;;;;;;;49.25;37.50;;;;;11.45;71.03;101629.56;4999750;28;45330;-65
2021/10/15 01:56:17;;;;;;;;;46.50;37.50;;;;;11.43;71.28;101626.13;5000089;28;45383;-64
2021/10/15 01:58:42;;;;;;;;;44.00;36.75;;;;;11.43;71.33;101613.13;4999851;28;45310;-68
2021/10/15 02:01:08;;;;;;;;;43.00;35.75;;;;;11.43;71.35;101609.66;4975809;28;47105;-65
2021/10/15 02:03:33;;;;;;;;;41.25;36.75;;;;;11.44;71.32;101613.97;4994115;28;45271;-65
2021/10/15 02:05:58;;;;;;;;;39.50;33.25;;;;;11.42;71.39;101611.41;4997808;28;45588;-67
2021/10/15 02:08:24;;;;;;;;;41.50;34.25;;;;;11.41;71.38;101612.28;4997391;28;45559;-67
2021/10/15 02:10:49;;;;;;;;;40.25;35.75;;;;;11.39;71.71;101610.56;4997222;28;45267;-67
2021/10/15 02:13:15;;;;;;;;;28.75;22.50;;;;;11.39;71.38;101619.25;4997497;28;45555;-66
2021/10/15 02:15:40;;;;;;;;;40.25;33.50;;;;;11.38;71.72;101614.06;4989872;28;45432;-66
2021/10/15 02:18:06;;;;;;;;;45.00;36.00;;;;;11.38;71.31;101616.66;4992838;28;45479;-65
2021/10/15 02:20:31;;;;;;;;;41.25;33.75;;;;;11.35;71.68;101614.97;4999359;28;46219;-64
2021/10/15 02:22:57;;;;;;;;;42.00;36.25;;;;;11.34;71.95;101610.66;4998109;28;45243;-64
2021/10/15 02:25:23;;;;;;;;;42.00;34.50;;;;;11.34;71.63;101610.66;4997230;28;45381;-65
2021/10/15 02:27:49;;;;;;;;;37.75;32.25;;;;;11.33;71.89;101611.53;4999277;28;45514;-64
2021/10/15 02:30:17;;;;;;;;;37.75;34.25;;;;;11.32;71.97;101602.03;4999749;28;45453;-65
2021/10/15 02:32:44;;;;;;;;;39.25;32.75;;;;;11.32;71.88;101598.56;5003074;28;45362;-65
2021/10/15 02:35:11;;;;;;;;;41.00;35.75;;;;;11.32;71.56;101588.16;5003175;28;45254;-64
2021/10/15 02:37:36;;;;;;;;;44.75;36.75;;;;;11.31;71.58;101587.28;4985227;28;45291;-64
2021/10/15 02:40:03;;;;;;;;;45.50;36.00;;;;;11.30;72.00;101589.94;5002769;28;46675;-65
2021/10/15 02:42:28;;;;;;;;;45.50;34.50;;;;;11.30;72.12;101592.53;5002675;28;46036;-64
2021/10/15 02:44:53;;;;;;;;;40.75;36.00;;;;;11.27;71.77;101583.91;5002915;28;45317;-65
2021/10/15 02:47:19;;;;;;;;;44.50;33.50;;;;;11.23;72.38;101590.03;5002604;28;45489;-62
2021/10/15 02:49:44;;;;;;;;;50.50;37.50;;;;;11.23;71.78;101587.44;5002810;28;45365;-63
2021/10/15 02:52:09;;;;;;;;;44.50;35.75;;;;;11.20;72.41;101592.66;5002792;28;45250;-64
2021/10/15 02:54:35;;;;;;;;;51.25;35.25;;;;;11.20;72.59;101592.66;5002627;28;45615;-64
2021/10/15 02:57:00;;;;;;;;;43.00;37.50;;;;;11.18;72.52;101591.84;5002705;28;45556;-64
2021/10/15 02:59:26;;;;;;;;;46.00;37.67;;;;;11.16;72.84;101598.81;5002515;28;45379;-64
2021/10/15 03:01:51;;;;;;;;;46.75;36.50;;;;;11.14;72.53;101586.72;5002578;28;45449;-65
2021/10/15 03:04:17;;;;;;;;;42.00;36.00;;;;;11.10;72.87;101595.47;5002878;28;45325;-65
2021/10/15 03:06:42;;;;;;;;;35.25;32.00;;;;;11.10;72.59;101596.31;5002607;28;45522;-63
2021/10/15 03:09:07;;;;;;;;;44.75;38.00;;;;;11.10;72.84;101600.66;5002409;28;45302;-64
2021/10/15 03:11:33;;;;;;;;;41.50;35.75;;;;;11.08;73.05;101598.09;5002596;28;45313;-63
2021/10/15 03:13:59;;;;;;;;;48.00;38.25;;;;;11.07;74.37;101585.97;5002421;28;45274;-63
2021/10/15 03:16:25;;;;;;;;;31.50;31.50;;;;;11.05;73.90;101585.13;5003770;28;45417;-63
2021/10/15 03:18:50;;;;;;;;;45.75;37.00;;;;;11.07;75.12;101596.38;4996486;28;45426;-64
2021/10/15 03:21:15;;;;;;;;;44.50;36.00;;;;;11.03;75.60;101589.50;5002220;28;45159;-64
2021/10/15 03:23:41;;;;;;;;;43.50;37.00;;;;;11.01;75.85;101583.44;4998757;28;45168;-64
2021/10/15 03:26:06;;;;;;;;;36.75;28.00;;;;;11.00;75.33;101589.53;5002198;28;45199;-64
2021/10/15 03:28:32;;;;;;;;;44.25;35.25;;;;;10.95;75.61;101580.94;5001529;28;46305;-64
2021/10/15 03:30:57;;;;;;;;;48.75;34.75;;;;;10.90;76.47;101577.56;5002150;28;45282;-65
2021/10/15 03:33:23;;;;;;;;;41.50;36.00;;;;;10.96;76.45;101587.84;5002443;28;45583;-64
2021/10/15 03:35:48;;;;;;;;;38.25;35.75;;;;;10.99;76.37;101587.81;5002096;28;45334;-64
2021/10/15 03:38:13;;;;;;;;;43.75;35.25;;;;;11.00;77.28;101588.66;5001951;28;46435;-64
2021/10/15 03:40:39;;;;;;;;;46.00;36.75;;;;;10.97;77.00;101586.97;5001795;28;45352;-64
2021/10/15 03:43:04;;;;;;;;;42.00;36.00;;;;;10.90;76.72;101573.22;5000468;28;45280;-64
2021/10/15 03:45:30;;;;;;;;;50.50;40.75;;;;;10.99;76.44;101574.81;5001446;28;45334;-64
2021/10/15 03:47:55;;;;;;;;;39.00;33.50;;;;;11.04;76.50;101579.97;5001113;28;45565;-64
2021/10/15 03:50:21;;;;;;;;;40.25;36.25;;;;;11.06;76.67;101572.97;5001100;28;45442;-64
2021/10/15 03:52:46;;;;;;;;;44.25;37.00;;;;;11.06;76.02;101576.44;5001453;28;45365;-64
2021/10/15 03:55:12;;;;;;;;;40.25;35.00;;;;;11.10;75.81;101578.09;4999825;28;45695;-64
2021/10/15 03:57:39;;;;;;;;;48.00;38.00;;;;;11.12;75.77;101580.69;5001015;28;45432;-64
2021/10/15 04:00:07;;;;;;;;;30.50;25.50;;;;;11.14;75.92;101578.91;5001363;28;45935;-64
2021/10/15 04:02:36;;;;;;;;;39.75;34.75;;;;;11.13;75.88;101585.84;5001147;28;45367;-64
2021/10/15 04:05:01;;;;;;;;;40.00;33.75;;;;;11.16;76.00;101584.94;5001581;28;45298;-65
2021/10/15 04:07:26;;;;;;;;;37.25;35.25;;;;;11.16;76.17;101580.59;5001325;28;45297;-64
2021/10/15 04:09:52;;;;;;;;;39.25;33.25;;;;;11.14;76.43;101577.16;5000645;28;45367;-64
2021/10/15 04:12:17;;;;;;;;;44.25;37.75;;;;;11.11;77.25;101564.22;5001368;28;45476;-65
2021/10/15 04:14:42;;;;;;;;;40.00;35.00;;;;;11.14;76.56;101565.91;5000711;28;45369;-65
2021/10/15 04:17:08;;;;;;;;;39.00;34.00;;;;;11.16;76.36;101570.19;4999473;28;46066;-64
2021/10/15 04:19:33;;;;;;;;;43.25;35.00;;;;;11.19;76.59;101577.94;4995830;28;45444;-64
2021/10/15 04:21:58;;;;;;;;;41.50;37.25;;;;;11.17;77.53;101566.69;5000358;28;45480;-65
2021/10/15 04:24:24;;;;;;;;;46.25;37.25;;;;;11.20;76.67;101571.84;4997083;28;45194;-65
2021/10/15 04:26:49;;;;;;;;;43.50;35.00;;;;;11.19;76.40;101564.94;5000929;28;45331;-68
2021/10/15 04:29:14;;;;;;;;;40.75;35.25;;;;;11.15;76.62;101563.28;5000765;28;45242;-68
2021/10/15 04:31:39;;;;;;;;;42.50;34.25;;;;;11.16;76.85;101559.78;5000708;28;45389;-67
2021/10/15 04:34:05;;;;;;;;;44.25;35.00;;;;;11.14;76.70;101556.34;4983122;28;45490;-68
2021/10/15 04:36:31;;;;;;;;;47.50;35.50;;;;;11.13;76.58;101545.97;5000508;28;45306;-67
2021/10/15 04:38:57;;;;;;;;;44.75;35.50;;;;;11.16;76.18;101549.38;5000491;28;45769;-67
2021/10/15 04:41:22;;;;;;;;;41.75;34.50;;;;;11.17;76.43;101551.09;5000299;28;45241;-67
2021/10/15 04:43:48;;;;;;;;;50.25;37.00;;;;;11.19;76.28;101548.47;5000109;28;45346;-66
2021/10/15 04:46:13;;;;;;;;;47.50;37.75;;;;;11.16;76.37;101548.53;5000024;28;46892;-65
2021/10/15 04:48:39;;;;;;;;;36.50;31.25;;;;;11.17;76.70;101547.63;5000486;28;45348;-64
2021/10/15 04:51:04;;;;;;;;;40.50;35.75;;;;;11.17;76.88;101542.44;5000330;28;45235;-64
2021/10/15 04:53:29;;;;;;;;;55.25;40.50;;;;;11.14;76.56;101540.75;4999601;28;45313;-64
2021/10/15 04:55:55;;;;;;;;;64.50;52.00;;;;;11.18;76.46;101533.75;4999912;28;46003;-65
2021/10/15 04:58:20;;;;;;;;;43.50;37.50;;;;;11.17;76.84;101525.06;4999297;28;45624;-64
2021/10/15 05:00:45;;;;;;;;;49.00;37.50;;;;;11.19;76.92;101525.91;4999788;28;45307;-64
2021/10/15 05:03:11;;;;;;;;;57.00;43.00;;;;;11.18;76.89;101532.00;4998836;28;45647;-64
2021/10/15 05:05:40;;;;;;;;;53.00;42.75;;;;;11.18;76.54;101529.38;4998502;28;46179;-64
2021/10/15 05:08:06;;;;;;;;;49.25;37.00;;;;;11.16;76.79;101533.75;4999443;28;45351;-64
2021/10/15 05:10:31;;;;;;;;;47.00;38.00;;;;;11.18;77.25;101538.94;4998902;28;45346;-63
2021/10/15 05:12:57;;;;;;;;;45.25;37.50;;;;;11.17;77.26;101537.22;4999330;28;45230;-62
2021/10/15 05:15:23;;;;;;;;;52.50;38.50;;;;;11.17;77.84;101538.09;4999068;28;46475;-62
2021/10/15 05:17:48;;;;;;;;;48.75;40.00;;;;;11.18;77.62;101537.19;4992650;28;45643;-62
2021/10/15 05:20:16;;;;;;;;;44.25;35.50;;;;;11.17;77.95;101532.88;4999945;28;45402;-62
2021/10/15 05:22:43;;;;;;;;;54.00;39.50;;;;;11.17;78.36;101534.63;4997411;28;45479;-62
2021/10/15 05:25:10;;;;;;;;;56.25;38.75;;;;;11.16;78.47;101527.72;4995837;28;46157;-62
2021/10/15 05:27:36;;;;;;;;;50.75;41.00;;;;;11.17;78.54;101526.81;4999658;28;45777;-62
2021/10/15 05:30:03;;;;;;;;;52.00;41.00;;;;;11.16;78.39;101531.16;4999606;28;45259;-62
2021/10/15 05:32:28;;;;;;;;;47.25;40.25;;;;;11.16;78.08;101530.31;4999780;28;45357;-61
2021/10/15 05:34:54;;;;;;;;;40.75;35.25;;;;;11.13;78.88;101528.63;4999155;28;45311;-61
2021/10/15 05:37:20;;;;;;;;;45.00;35.75;;;;;11.12;78.54;101523.44;4999425;28;45452;-62
2021/10/15 05:39:45;;;;;;;;;40.75;36.00;;;;;11.11;78.63;101530.41;4999506;28;45295;-63
2021/10/15 05:42:11;;;;;;;;;46.50;38.00;;;;;11.11;78.70;101533.00;4999531;28;45420;-62
2021/10/15 05:44:37;;;;;;;;;51.50;41.00;;;;;11.12;78.19;101536.47;4999469;28;45477;-63
2021/10/15 05:47:06;;;;;;;;;45.00;38.00;;;;;11.12;78.31;101523.44;4999546;28;45373;-63
2021/10/15 05:49:38;;;;;;;;;41.75;35.25;;;;;11.13;78.08;101528.63;4999591;28;45282;-64
2021/10/15 05:52:07;;;;;;;;;59.75;44.00;;;;;11.12;78.99;101526.91;4999022;28;45396;-62
2021/10/15 05:55:00;;;;;;;;;54.50;41.25;;;;;11.07;78.79;101523.53;4998710;28;46274;-62
2021/10/15 05:59:53;;;;;;;;;48.50;39.00;;;;;11.10;78.82;101528.69;4999279;28;45325;-61
2021/10/15 06:02:18;;;;;;;;;55.75;43.75;;;;;11.10;79.09;101533.03;4999142;28;45603;-63
2021/10/15 06:15:26;;;;;;;;;55.75;40.75;;;;;11.04;79.64;101538.34;4998861;28;45437;-59
2021/10/15 06:17:52;;;;;;;;;49.00;39.50;;;;;11.01;79.61;101549.63;4993498;28;45407;-60
2021/10/15 06:20:19;;;;;;;;;55.50;41.75;;;;;10.99;79.88;101556.59;4999174;28;45335;-60
2021/10/15 06:22:44;;;;;;;;;66.00;53.00;;;;;11.00;79.32;101553.09;4999043;28;45469;-59
2021/10/15 06:25:09;;;;;;;;;59.00;45.75;;;;;11.01;79.59;101567.81;4992743;28;45313;-59
2021/10/15 06:27:35;;;;;;;;;45.75;38.00;;;;;10.97;79.89;101556.63;4998671;28;45378;-59
2021/10/15 06:30:01;;;;;;;;;45.25;37.75;;;;;11.02;80.33;101548.78;4998460;28;45661;-59
2021/10/15 06:32:26;;;;;;;;;54.50;41.25;;;;;10.98;79.34;101554.88;4998716;28;45192;-59
2021/10/15 06:34:51;;;;;;;;;49.00;40.75;;;;;10.95;79.68;101554.94;4998600;28;46098;-59
2021/10/15 06:37:17;;;;;;;;;56.25;41.00;;;;;10.96;79.96;101557.50;4999009;28;45251;-59
2021/10/15 06:39:43;;;;;;;;;54.00;40.25;;;;;10.97;80.17;101554.03;4998519;28;45247;-59
2021/10/15 06:42:09;;;;;;;;;46.25;37.00;;;;;11.01;79.18;101549.63;4999033;28;45350;-59
2021/10/15 06:44:34;;;;;;;;;47.25;41.25;;;;;11.04;79.89;101548.75;4998620;28;47206;-59
2021/10/15 06:47:00;;;;;;;;;53.00;41.25;;;;;11.06;79.72;101545.22;4998452;28;45349;-60
2021/10/15 06:49:25;;;;;;;;;51.75;41.00;;;;;11.07;79.95;101549.53;4998441;28;45441;-59
2021/10/15 06:51:51;;;;;;;;;42.75;38.25;;;;;11.10;79.18;101551.22;4998710;28;45529;-59
2021/10/15 06:54:16;;;;;;;;;54.75;40.00;;;;;11.12;79.95;101547.72;4998086;28;45290;-60
2021/10/15 06:56:42;;;;;;;;;49.75;38.50;;;;;11.17;79.89;101543.28;4998568;28;45394;-59
2021/10/15 06:59:07;;;;;;;;;53.75;40.00;;;;;11.23;79.83;101548.41;4980344;28;45345;-59
2021/10/15 07:01:34;;;;;;;;;46.75;38.00;;;;;11.28;79.10;101548.31;4998395;28;45314;-59
2021/10/15 07:03:59;;;;;;;;;51.50;41.00;;;;;11.34;79.13;101552.56;4998292;28;45255;-59
2021/10/15 07:06:26;;;;;;;;;55.00;39.00;;;;;11.37;79.05;101555.94;4998289;28;45373;-59
2021/10/15 07:08:51;;;;;;;;;47.00;38.00;;;;;11.39;78.94;101558.53;4998368;28;45269;-59
2021/10/15 07:11:17;;;;;;;;;55.50;42.00;;;;;11.43;79.15;101549.81;4998580;28;45483;-59
2021/10/15 07:13:42;;;;;;;;;63.50;44.50;;;;;11.49;78.76;101557.50;4998106;28;45293;-59
2021/10/15 07:16:10;;;;;;;;;50.50;39.00;;;;;11.53;78.92;101564.34;4999846;28;45359;-59
2021/10/15 07:18:38;;;;;;;;;50.50;36.25;;;;;11.55;78.35;101568.63;4993321;28;45330;-59
2021/10/15 07:21:06;;;;;;;;;53.25;42.75;;;;;11.57;78.97;101579.03;5002068;28;45486;-59
2021/10/15 07:23:31;;;;;;;;;53.50;41.25;;;;;11.60;78.68;101576.34;4998238;28;46097;-59
2021/10/15 07:25:57;;;;;;;;;52.25;42.25;;;;;11.65;78.45;101574.56;5001793;28;45361;-59
2021/10/15 07:28:23;;;;;;;;;56.00;41.25;;;;;11.67;78.76;101572.78;4998906;28;45279;-59
2021/10/15 07:30:50;;;;;;;;;55.75;42.75;;;;;11.75;78.39;101583.03;5001451;28;45303;-59
2021/10/15 07:33:15;;;;;;;;;50.25;38.00;;;;;11.81;78.47;101593.34;5001345;28;45376;-60
2021/10/15 07:35:41;;;;;;;;;53.75;42.75;;;;;11.89;78.20;101594.09;5001064;28;45551;-59
2021/10/15 07:38:07;;;;;;;;;50.25;40.00;;;;;11.98;77.70;101582.63;5001657;28;45318;-61
2021/10/15 07:40:32;;;;;;;;;52.00;39.25;;;;;12.07;77.60;101588.53;5001680;28;45353;-61
2021/10/15 07:42:58;;;;;;;;;50.50;40.25;;;;;12.18;77.05;101580.47;5001057;28;45442;-60
2021/10/15 07:45:26;;;;;;;;;56.25;41.25;;;;;12.28;76.87;101575.94;5000512;28;45326;-60
2021/10/15 07:47:52;;;;;;;;;53.50;41.50;;;;;12.38;76.65;101582.66;4999718;28;45374;-60
2021/10/15 07:50:17;;;;;;;;;54.00;41.75;;;;;12.51;76.47;101586.72;5001453;28;45518;-59
2021/10/15 07:52:42;;;;;;;;;56.00;42.00;;;;;12.67;76.05;101590.72;5001570;28;46091;-60
2021/10/15 07:55:10;;;;;;;;;54.00;40.25;;;;;12.79;75.61;101600.84;5001603;28;45336;-60
2021/10/15 07:57:36;;;;;;;;;49.75;38.75;;;;;12.96;74.93;101592.63;5001450;28;45312;-60
2021/10/15 08:00:04;;;;;;;;;47.75;39.50;;;;;13.09;74.93;101603.66;5001679;28;45458;-60
2021/10/15 08:02:30;;;;;;;;;53.25;40.25;;;;;13.18;74.64;101599.97;4987490;28;46927;-59
2021/10/15 08:04:55;;;;;;;;;50.75;42.75;;;;;13.28;74.33;101599.72;5001449;28;45245;-59
2021/10/15 08:07:20;;;;;;;;;53.25;41.25;;;;;13.34;74.00;101601.31;5001388;28;45254;-59
2021/10/15 08:09:46;;;;;;;;;55.75;42.50;;;;;13.43;73.95;101598.50;5000834;28;45540;-59
2021/10/15 08:12:11;;;;;;;;;55.75;39.50;;;;;13.56;73.81;101594.66;4983827;28;47005;-60
2021/10/15 08:14:36;;;;;;;;;57.00;44.00;;;;;13.65;73.07;101599.66;5000848;28;45273;-61
2021/10/15 08:17:02;;;;;;;;;56.75;43.00;;;;;13.73;72.96;101590.75;4999848;28;45418;-61
2021/10/15 08:19:27;;;;;;;;;58.50;43.00;;;;;13.73;72.68;101596.81;4995978;28;45467;-61
2021/10/15 08:21:53;;;;;;;;;60.50;44.50;;;;;13.74;72.46;101597.69;5000488;28;45300;-59
2021/10/15 08:24:18;;;;;;;;;64.75;48.75;;;;;13.73;72.28;101596.81;4997534;28;45246;-58
2021/10/15 08:26:44;;;;;;;;;59.75;44.75;;;;;13.70;72.32;101589.94;5001072;28;45325;-60
2021/10/15 08:29:09;;;;;;;;;54.75;43.75;;;;;13.68;71.78;101588.25;5000078;28;45305;-60
2021/10/15 08:31:34;;;;;;;;;53.75;40.25;;;;;13.69;72.13;101595.19;4982796;28;46123;-60
2021/10/15 08:34:02;;;;;;;;;48.50;40.25;;;;;13.70;71.88;101594.31;5000774;28;45247;-60
2021/10/15 08:36:28;;;;;;;;;52.25;42.75;;;;;13.74;71.97;101592.47;5000864;28;45417;-60
2021/10/15 08:38:53;;;;;;;;;58.00;44.00;;;;;13.81;71.87;101596.59;5001088;28;45282;-60
2021/10/15 08:41:25;;;;;;;;;57.75;45.50;;;;;13.84;71.89;101594.78;5000718;28;46201;-60
2021/10/15 08:43:54;;;;;;;;;55.00;44.00;;;;;13.87;71.68;101597.31;4992414;28;45832;-60
2021/10/15 08:46:21;;;;;;;;;66.00;47.00;;;;;13.93;71.54;101593.66;4994504;28;45364;-60
2021/10/15 08:48:46;;;;;;;;;52.75;41.75;;;;;13.99;71.32;101601.34;4995478;28;45399;-59
2021/10/15 08:51:14;;;;;;;;;56.75;43.00;;;;;14.11;71.11;101610.59;5000307;28;45211;-59
2021/10/15 08:54:00;;;;;;;;;54.75;42.25;;;;;14.14;70.55;101598.28;4996908;28;45500;-60
2021/10/15 08:56:34;;;;;;;;;53.25;41.00;;;;;14.24;70.26;101614.59;4992305;28;45262;-60
2021/10/15 08:59:03;;;;;;;;;52.25;42.75;;;;;14.28;69.95;101604.00;4995054;28;45268;-59
2021/10/15 09:01:39;;;;;;;;;54.50;42.25;;;;;14.31;69.85;101596.06;4998906;28;46100;-60
2021/10/15 09:04:06;;;;;;;;;55.75;43.00;;;;;14.36;69.83;101610.75;4990754;28;45723;-60
2021/10/15 09:06:39;;;;;;;;;57.75;44.50;;;;;14.48;69.58;101613.03;4998821;28;45465;-60
2021/10/15 09:09:05;;;;;;;;;55.75;43.25;;;;;14.58;69.49;101606.63;4995939;28;45132;-62
2021/10/15 09:11:47;;;;;;;;;52.50;42.00;;;;;14.64;68.52;101606.47;4991760;28;45223;-56
2021/10/15 09:14:25;;;;;;;;;50.50;38.50;;;;;14.63;69.24;101602.13;4991538;28;45585;-49
2021/10/15 09:17:10;;;;;;;;;51.25;39.25;;;;;14.77;68.72;101604.31;4993391;28;45247;-61
2021/10/15 09:20:03;;;;;;;;;53.50;39.00;;;;;14.84;67.95;101606.69;4996006;28;45215;-57
2021/10/15 09:22:33;;;;;;;;;50.25;39.00;;;;;14.87;66.61;101614.44;4989844;28;47131;-52
2021/10/15 09:25:05;;;;;;;;;60.75;45.00;;;;;14.87;67.00;101624.06;4996264;28;45982;-53
2021/10/15 09:27:34;;;;;;;;;61.00;43.00;;;;;14.93;67.60;101623.00;4982402;28;45268;-62
2021/10/15 09:30:07;;;;;;;;;53.75;41.75;;;;;14.93;66.75;101621.25;4999668;28;45547;-63
2021/10/15 09:32:41;;;;;;;;;52.25;41.50;;;;;14.97;66.96;101617.63;4997141;28;47692;-69
2021/10/15 09:35:09;;;;;;;;;50.00;40.00;;;;;15.09;65.99;101629.47;4991837;28;45840;-62
2021/10/15 09:37:37;;;;;;;;;50.75;39.00;;;;;15.19;66.75;101628.25;4997631;28;45436;-61
2021/10/15 09:40:09;;;;;;;;;50.50;37.50;;;;;15.38;65.83;101629.38;4997547;28;45470;-53
2021/10/15 09:42:37;;;;;;;;;49.75;38.25;;;;;15.48;65.25;101625.56;4989745;28;47127;-53
2021/10/15 09:45:28;;;;;;;;;53.00;39.75;;;;;15.73;65.13;101630.84;4994826;28;45522;-51
2021/10/15 09:47:59;;;;;;;;;52.25;38.50;;;;;16.10;64.74;101633.00;4990688;28;45630;-52
2021/10/15 09:50:29;;;;;;;;;51.75;39.00;;;;;16.89;63.14;101628.31;4994778;28;45406;-53
2021/10/15 09:53:00;;;;;;;;;51.25;42.25;;;;;17.31;61.89;101617.84;4991975;28;46299;-53
2021/10/15 09:55:35;;;;;;;;;49.00;39.00;;;;;17.52;62.34;101621.34;4988196;28;45797;-54
2021/10/15 09:58:17;;;;;;;;;47.00;36.50;;;;;17.68;61.06;101627.72;4994117;28;45477;-54
2021/10/15 10:00:43;;;;;;;;;44.00;36.25;;;;;17.74;62.14;101631.84;4991314;28;45455;-52
2021/10/15 10:03:09;;;;;;;;;51.50;38.75;;;;;18.10;62.00;101632.00;4997731;28;46183;-54
2021/10/15 10:05:35;;;;;;;;;43.00;34.25;;;;;18.53;54.22;101623.88;4998204;28;45384;-54
2021/10/15 10:08:01;;;;;;;;;44.00;36.25;;;;;18.47;52.39;101634.69;4980619;28;45219;-57
2021/10/15 10:10:33;;;;;;;;;47.25;36.50;;;;;18.49;57.00;101638.09;4998025;28;45463;-53
2021/10/15 10:12:59;;;;;;;;;38.00;34.75;;;;;19.01;55.98;101629.53;4999309;28;45210;-59
2021/10/15 10:15:28;;;;;;;;;41.00;33.00;;;;;19.07;56.77;101627.47;4998860;28;45791;-60
2021/10/15 10:18:28;;;;;;;;;44.25;34.25;;;;;19.00;55.65;101639.22;4992237;28;45446;-59
2021/10/15 10:21:05;;;;;;;;;46.75;34.50;;;;;18.91;56.14;101623.88;4991753;28;45230;-60
2021/10/15 10:23:37;;;;;;;;;41.25;33.75;;;;;18.88;53.32;101629.28;4995451;28;45316;-59
2021/10/15 10:26:11;;;;;;;;;41.25;32.00;;;;;18.67;55.25;101627.69;4998910;28;45943;-59
2021/10/15 10:28:37;;;;;;;;;36.50;32.00;;;;;18.58;56.30;101634.19;4998594;28;45431;-59
2021/10/15 10:31:20;;;;;;;;;40.00;33.25;;;;;18.60;56.98;101624.41;4998888;28;45418;-59
2021/10/15 10:33:57;;;;;;;;;38.25;32.25;;;;;18.85;55.66;101629.44;4989829;28;45486;-60
2021/10/15 10:36:23;;;;;;;;;42.25;33.00;;;;;18.94;56.27;101628.13;4995985;28;45368;-60
2021/10/15 10:38:48;;;;;;;;;45.00;34.50;;;;;19.01;55.78;101630.38;4998819;28;45357;-60
2021/10/15 10:41:16;;;;;;;;;40.50;33.00;;;;;19.10;53.59;101622.06;4998991;28;45630;-60
2021/10/15 10:43:44;;;;;;;;;44.50;36.00;;;;;19.86;55.02;101632.34;4981144;28;45510;-62
2021/10/15 10:46:13;;;;;;;;;47.75;38.00;;;;;20.08;51.83;101635.56;4997770;28;45376;-60
2021/10/15 10:48:47;;;;;;;;;49.75;38.75;;;;;20.09;53.42;101631.97;4998890;28;45535;-65
2021/10/15 10:51:20;;;;;;;;;46.75;36.25;;;;;21.15;53.50;101621.72;4999107;28;45596;-61
2021/10/15 10:54:01;;;;;;;;;46.75;36.25;;;;;22.00;49.81;101627.22;5002351;28;46502;-59
2021/10/15 10:56:55;;;;;;;;;46.00;34.75;;;;;21.61;47.95;101634.91;4993322;28;45373;-59
2021/10/15 10:59:26;;;;;;;;;36.25;32.00;;;;;21.49;47.19;101628.59;4989002;28;45408;-59
2021/10/15 11:02:20;;;;;;;;;39.25;34.25;;;;;21.61;49.55;101630.47;4984087;28;45436;-63
2021/10/15 11:04:51;;;;;;;;;42.00;33.75;;;;;21.83;49.94;101628.28;4992104;28;46310;-63
2021/10/15 11:07:16;;;;;;;;;45.25;34.25;;;;;22.61;50.06;101627.88;5001483;28;45749;-63
2021/10/15 11:09:48;;;;;;;;;39.75;31.50;;;;;23.68;45.88;101624.38;5002226;28;45456;-62
2021/10/15 11:12:22;;;;;;;;;42.25;34.75;;;;;23.55;46.86;101626.13;5001747;28;45255;-60
2021/10/15 11:15:04;;;;;;;;;35.75;31.75;;;;;23.69;46.83;101622.56;5001605;28;46210;-58
2021/10/15 11:17:37;;;;;;;;;37.50;33.25;;;;;23.42;46.07;101622.59;4992943;28;45792;-70
2021/10/15 11:20:10;;;;;;;;;34.25;30.00;;;;;22.84;46.45;101619.34;5000897;28;45470;-66
2021/10/15 11:22:37;;;;;;;;;39.25;32.25;;;;;22.66;47.28;101618.72;5002323;28;45243;-60
2021/10/15 11:25:04;;;;;;;;;33.75;29.00;;;;;22.91;46.16;101619.78;4997652;28;46431;-61